sensor_id;sensor_type;location;lat;lon;timestamp;P1;durP1;ratioP1;P2;durP2;ratioP2
26824;SDS011;14402;48.178;11.566;2023-12-28T00:00:18;5.2;;;4.3;;
26824;SDS011;14402;48.178;11.566;2023-12-28T00:00:48;5.6;;;5.0;;
26824;SDS011;14402;48.178;11.566;2023-12-28T00:01:18;5.6;;;5.0;;
26824;SDS011;14402;48.178;11.566;2023-12-28T00:01:48;5.6;;;5.0;;
26824;SDS011;14402;48.178;11.566;2023-12-28T00:02:18;5.6;;;5.1;;
26824;SDS011;14402;48.178;11.566;2023-12-28T00:02:48;5.6;;;5.1;;
26824;SDS011;14402;48.178;11.566;2023-12-28T00:03:18;5.6;;;5.1;;
26824;SDS011;14402;48.178;11.566;2023-12-28T00:03:48;5.6;;;5.1;;
26824;SDS011;14402;48.178;11.566;2023-12-28T00:04:18;6.1;;;5.2;;
26824;SDS011;14402;48.178;11.566;2023-12-28T00:04:48;6.5;;;5.4;;
26824;SDS011;14402;48.178;11.566;2023-12-28T00:05:18;6.5;;;5.4;;
26824;SDS011;14402;48.178;11.566;2023-12-28T00:05:48;6.5;;;5.4;;
26824;SDS011;14402;48.178;11.566;2023-12-28T00:06:18;7.2;;;5.4;;
26824;SDS011;14402;48.178;11.566;2023-12-28T00:06:48;7.9;;;5.5;;
26824;SDS011;14402;48.178;11.566;2023-12-28T00:07:18;7.9;;;5.5;;
26824;SDS011;14402;48.178;11.566;2023-12-28T00:07:48;7.9;;;5.5;;
26824;SDS011;14402;48.178;11.566;2023-12-28T00:08:19;6.3;;;4.8;;
26824;SDS011;14402;48.178;11.566;2023-12-28T00:08:49;4.7;;;4.2;;
26824;SDS011;14402;48.178;11.566;2023-12-28T00:09:19;4.7;;;4.2;;
26824;SDS011;14402;48.178;11.566;2023-12-28T00:09:49;4.7;;;4.2;;
26824;SDS011;14402;48.178;11.566;2023-12-28T00:10:19;4.9;;;4.0;;
26824;SDS011;14402;48.178;11.566;2023-12-28T00:10:49;5.2;;;3.8;;
26824;SDS011;14402;48.178;11.566;2023-12-28T00:11:19;5.2;;;3.8;;
26824;SDS011;14402;48.178;11.566;2023-12-28T00:11:49;5.2;;;3.8;;
26824;SDS011;14402;48.178;11.566;2023-12-28T00:12:19;4.8;;;3.8;;
26824;SDS011;14402;48.178;11.566;2023-12-28T00:12:49;4.4;;;3.7;;
26824;SDS011;14402;48.178;11.566;2023-12-28T00:13:19;4.4;;;3.7;;
26824;SDS011;14402;48.178;11.566;2023-12-28T00:13:49;4.4;;;3.7;;
26824;SDS011;14402;48.178;11.566;2023-12-28T00:14:19;4.0;;;3.5;;
26824;SDS011;14402;48.178;11.566;2023-12-28T00:14:49;3.6;;;3.2;;
26824;SDS011;14402;48.178;11.566;2023-12-28T00:15:19;3.6;;;3.2;;
26824;SDS011;14402;48.178;11.566;2023-12-28T00:15:49;3.6;;;3.2;;
26824;SDS011;14402;48.178;11.566;2023-12-28T00:16:19;3.5;;;3.2;;
26824;SDS011;14402;48.178;11.566;2023-12-28T00:16:49;3.5;;;3.2;;
26824;SDS011;14402;48.178;11.566;2023-12-28T00:17:20;3.5;;;3.2;;
26824;SDS011;14402;48.178;11.566;2023-12-28T00:17:49;3.5;;;3.2;;
26824;SDS011;14402;48.178;11.566;2023-12-28T00:18:19;4.0;;;2.9;;
26824;SDS011;14402;48.178;11.566;2023-12-28T00:18:49;4.4;;;2.6;;
26824;SDS011;14402;48.178;11.566;2023-12-28T00:19:20;4.4;;;2.6;;
26824;SDS011;14402;48.178;11.566;2023-12-28T00:19:50;4.4;;;2.6;;
26824;SDS011;14402;48.178;11.566;2023-12-28T00:20:20;4.0;;;2.5;;
26824;SDS011;14402;48.178;11.566;2023-12-28T00:20:50;3.6;;;2.5;;
26824;SDS011;14402;48.178;11.566;2023-12-28T00:21:20;3.6;;;2.5;;
26824;SDS011;14402;48.178;11.566;2023-12-28T00:21:50;3.6;;;2.5;;
26824;SDS011;14402;48.178;11.566;2023-12-28T00:22:20;4.0;;;2.7;;
26824;SDS011;14402;48.178;11.566;2023-12-28T00:22:50;4.4;;;2.9;;
26824;SDS011;14402;48.178;11.566;2023-12-28T00:23:20;4.4;;;2.9;;
26824;SDS011;14402;48.178;11.566;2023-12-28T00:23:50;4.4;;;2.9;;
26824;SDS011;14402;48.178;11.566;2023-12-28T00:24:20;4.2;;;2.8;;
26824;SDS011;14402;48.178;11.566;2023-12-28T00:24:50;4.0;;;2.6;;
26824;SDS011;14402;48.178;11.566;2023-12-28T00:25:20;4.0;;;2.6;;
26824;SDS011;14402;48.178;11.566;2023-12-28T00:25:50;4.0;;;2.6;;
26824;SDS011;14402;48.178;11.566;2023-12-28T00:26:20;4.2;;;2.8;;
26824;SDS011;14402;48.178;11.566;2023-12-28T00:26:50;4.4;;;2.9;;
26824;SDS011;14402;48.178;11.566;2023-12-28T00:27:20;4.4;;;2.9;;
26824;SDS011;14402;48.178;11.566;2023-12-28T00:27:50;4.4;;;2.9;;
26824;SDS011;14402;48.178;11.566;2023-12-28T00:28:20;4.7;;;2.8;;
26824;SDS011;14402;48.178;11.566;2023-12-28T00:28:50;4.9;;;2.6;;
26824;SDS011;14402;48.178;11.566;2023-12-28T00:29:20;4.9;;;2.6;;
26824;SDS011;14402;48.178;11.566;2023-12-28T00:29:51;4.9;;;2.6;;
26824;SDS011;14402;48.178;11.566;2023-12-28T00:30:20;3.8;;;2.3;;
26824;SDS011;14402;48.178;11.566;2023-12-28T00:30:51;2.7;;;2.1;;
26824;SDS011;14402;48.178;11.566;2023-12-28T00:31:21;2.7;;;2.1;;
26824;SDS011;14402;48.178;11.566;2023-12-28T00:31:51;2.7;;;2.1;;
26824;SDS011;14402;48.178;11.566;2023-12-28T00:32:21;2.7;;;2.2;;
26824;SDS011;14402;48.178;11.566;2023-12-28T00:32:51;2.7;;;2.2;;
26824;SDS011;14402;48.178;11.566;2023-12-28T00:33:21;2.7;;;2.2;;
26824;SDS011;14402;48.178;11.566;2023-12-28T00:33:51;2.7;;;2.2;;
26824;SDS011;14402;48.178;11.566;2023-12-28T00:34:21;2.9;;;2.2;;
26824;SDS011;14402;48.178;11.566;2023-12-28T00:34:51;3.1;;;2.3;;
26824;SDS011;14402;48.178;11.566;2023-12-28T00:35:21;3.1;;;2.3;;
26824;SDS011;14402;48.178;11.566;2023-12-28T00:35:51;3.1;;;2.3;;
26824;SDS011;14402;48.178;11.566;2023-12-28T00:36:21;2.7;;;2.2;;
26824;SDS011;14402;48.178;11.566;2023-12-28T00:36:52;2.3;;;2.1;;
26824;SDS011;14402;48.178;11.566;2023-12-28T00:37:22;2.3;;;2.1;;
26824;SDS011;14402;48.178;11.566;2023-12-28T00:37:52;2.3;;;2.1;;
26824;SDS011;14402;48.178;11.566;2023-12-28T00:38:22;2.8;;;2.2;;
26824;SDS011;14402;48.178;11.566;2023-12-28T00:38:52;3.4;;;2.2;;
26824;SDS011;14402;48.178;11.566;2023-12-28T00:39:22;3.4;;;2.2;;
26824;SDS011;14402;48.178;11.566;2023-12-28T00:39:52;3.4;;;2.2;;
26824;SDS011;14402;48.178;11.566;2023-12-28T00:40:22;3.1;;;2.0;;
26824;SDS011;14402;48.178;11.566;2023-12-28T00:40:52;2.8;;;1.9;;
26824;SDS011;14402;48.178;11.566;2023-12-28T00:41:22;2.8;;;1.9;;
26824;SDS011;14402;48.178;11.566;2023-12-28T00:41:52;2.8;;;1.9;;
26824;SDS011;14402;48.178;11.566;2023-12-28T00:42:23;2.4;;;1.8;;
26824;SDS011;14402;48.178;11.566;2023-12-28T00:42:53;2.1;;;1.8;;
26824;SDS011;14402;48.178;11.566;2023-12-28T00:43:23;2.1;;;1.8;;
26824;SDS011;14402;48.178;11.566;2023-12-28T00:43:53;2.3;;;1.8;;
26824;SDS011;14402;48.178;11.566;2023-12-28T00:44:23;2.6;;;1.8;;
26824;SDS011;14402;48.178;11.566;2023-12-28T00:44:53;2.6;;;1.8;;
26824;SDS011;14402;48.178;11.566;2023-12-28T00:45:23;2.6;;;1.8;;
26824;SDS011;14402;48.178;11.566;2023-12-28T00:45:53;2.4;;;1.9;;
26824;SDS011;14402;48.178;11.566;2023-12-28T00:46:23;2.3;;;2.0;;
26824;SDS011;14402;48.178;11.566;2023-12-28T00:46:53;2.3;;;2.0;;
26824;SDS011;14402;48.178;11.566;2023-12-28T00:47:24;2.3;;;2.0;;
26824;SDS011;14402;48.178;11.566;2023-12-28T00:47:54;2.7;;;2.0;;
26824;SDS011;14402;48.178;11.566;2023-12-28T00:48:24;3.1;;;2.1;;
26824;SDS011;14402;48.178;11.566;2023-12-28T00:48:54;3.1;;;2.1;;
26824;SDS011;14402;48.178;11.566;2023-12-28T00:49:24;3.1;;;2.1;;
26824;SDS011;14402;48.178;11.566;2023-12-28T00:49:54;3.2;;;2.0;;
26824;SDS011;14402;48.178;11.566;2023-12-28T00:50:24;3.3;;;2.0;;
26824;SDS011;14402;48.178;11.566;2023-12-28T00:50:54;3.3;;;2.0;;
26824;SDS011;14402;48.178;11.566;2023-12-28T00:51:24;3.3;;;2.0;;
26824;SDS011;14402;48.178;11.566;2023-12-28T00:51:54;3.0;;;2.0;;
26824;SDS011;14402;48.178;11.566;2023-12-28T00:52:24;2.8;;;1.9;;
26824;SDS011;14402;48.178;11.566;2023-12-28T00:52:55;2.8;;;1.9;;
26824;SDS011;14402;48.178;11.566;2023-12-28T00:53:25;2.8;;;1.9;;
26824;SDS011;14402;48.178;11.566;2023-12-28T00:53:55;2.4;;;1.8;;
26824;SDS011;14402;48.178;11.566;2023-12-28T00:54:25;2.0;;;1.8;;
26824;SDS011;14402;48.178;11.566;2023-12-28T00:54:55;2.0;;;1.8;;
26824;SDS011;14402;48.178;11.566;2023-12-28T00:55:25;2.0;;;1.8;;
26824;SDS011;14402;48.178;11.566;2023-12-28T00:55:55;2.8;;;1.8;;
26824;SDS011;14402;48.178;11.566;2023-12-28T00:56:25;3.7;;;1.9;;
26824;SDS011;14402;48.178;11.566;2023-12-28T00:56:55;3.7;;;1.9;;
26824;SDS011;14402;48.178;11.566;2023-12-28T00:57:25;3.7;;;1.9;;
26824;SDS011;14402;48.178;11.566;2023-12-28T00:57:55;3.7;;;1.9;;
26824;SDS011;14402;48.178;11.566;2023-12-28T00:58:25;3.6;;;1.9;;
26824;SDS011;14402;48.178;11.566;2023-12-28T00:58:55;3.6;;;1.9;;
26824;SDS011;14402;48.178;11.566;2023-12-28T00:59:25;3.6;;;1.9;;
26824;SDS011;14402;48.178;11.566;2023-12-28T00:59:55;3.1;;;2.0;;
26824;SDS011;14402;48.178;11.566;2023-12-28T01:00:25;2.6;;;2.1;;
26824;SDS011;14402;48.178;11.566;2023-12-28T01:00:56;2.6;;;2.1;;
26824;SDS011;14402;48.178;11.566;2023-12-28T01:01:26;2.6;;;2.1;;
26824;SDS011;14402;48.178;11.566;2023-12-28T01:01:56;2.3;;;1.9;;
26824;SDS011;14402;48.178;11.566;2023-12-28T01:02:26;2.1;;;1.7;;
26824;SDS011;14402;48.178;11.566;2023-12-28T01:02:56;2.1;;;1.7;;
26824;SDS011;14402;48.178;11.566;2023-12-28T01:03:26;2.1;;;1.7;;
26824;SDS011;14402;48.178;11.566;2023-12-28T01:03:56;2.3;;;1.7;;
26824;SDS011;14402;48.178;11.566;2023-12-28T01:04:26;2.6;;;1.7;;
26824;SDS011;14402;48.178;11.566;2023-12-28T01:04:56;2.6;;;1.7;;
26824;SDS011;14402;48.178;11.566;2023-12-28T01:05:26;2.6;;;1.7;;
26824;SDS011;14402;48.178;11.566;2023-12-28T01:05:56;2.8;;;1.8;;
26824;SDS011;14402;48.178;11.566;2023-12-28T01:06:26;3.1;;;1.9;;
26824;SDS011;14402;48.178;11.566;2023-12-28T01:06:56;3.1;;;1.9;;
26824;SDS011;14402;48.178;11.566;2023-12-28T01:07:27;3.1;;;1.9;;
26824;SDS011;14402;48.178;11.566;2023-12-28T01:07:57;2.8;;;1.9;;
26824;SDS011;14402;48.178;11.566;2023-12-28T01:08:27;2.5;;;1.9;;
26824;SDS011;14402;48.178;11.566;2023-12-28T01:08:57;2.5;;;1.9;;
26824;SDS011;14402;48.178;11.566;2023-12-28T01:09:27;2.5;;;1.9;;
26824;SDS011;14402;48.178;11.566;2023-12-28T01:09:57;2.7;;;1.8;;
26824;SDS011;14402;48.178;11.566;2023-12-28T01:10:27;2.8;;;1.7;;
26824;SDS011;14402;48.178;11.566;2023-12-28T01:10:57;2.8;;;1.7;;
26824;SDS011;14402;48.178;11.566;2023-12-28T01:11:27;2.8;;;1.7;;
26824;SDS011;14402;48.178;11.566;2023-12-28T01:11:57;2.3;;;1.7;;
26824;SDS011;14402;48.178;11.566;2023-12-28T01:12:27;1.9;;;1.6;;
26824;SDS011;14402;48.178;11.566;2023-12-28T01:12:57;1.9;;;1.6;;
26824;SDS011;14402;48.178;11.566;2023-12-28T01:13:27;1.9;;;1.6;;
26824;SDS011;14402;48.178;11.566;2023-12-28T01:13:57;2.0;;;1.7;;
26824;SDS011;14402;48.178;11.566;2023-12-28T01:14:27;2.0;;;1.7;;
26824;SDS011;14402;48.178;11.566;2023-12-28T01:14:57;2.0;;;1.7;;
26824;SDS011;14402;48.178;11.566;2023-12-28T01:15:28;2.0;;;1.7;;
26824;SDS011;14402;48.178;11.566;2023-12-28T01:15:58;2.8;;;1.7;;
26824;SDS011;14402;48.178;11.566;2023-12-28T01:16:28;3.5;;;1.7;;
26824;SDS011;14402;48.178;11.566;2023-12-28T01:16:58;3.5;;;1.7;;
26824;SDS011;14402;48.178;11.566;2023-12-28T01:17:29;3.5;;;1.7;;
26824;SDS011;14402;48.178;11.566;2023-12-28T01:17:58;2.8;;;1.7;;
26824;SDS011;14402;48.178;11.566;2023-12-28T01:18:28;2.2;;;1.7;;
26824;SDS011;14402;48.178;11.566;2023-12-28T01:18:58;2.2;;;1.7;;
26824;SDS011;14402;48.178;11.566;2023-12-28T01:19:28;2.2;;;1.7;;
26824;SDS011;14402;48.178;11.566;2023-12-28T01:19:58;2.3;;;1.7;;
26824;SDS011;14402;48.178;11.566;2023-12-28T01:20:28;2.4;;;1.6;;
26824;SDS011;14402;48.178;11.566;2023-12-28T01:20:59;2.4;;;1.6;;
26824;SDS011;14402;48.178;11.566;2023-12-28T01:21:29;2.4;;;1.6;;
26824;SDS011;14402;48.178;11.566;2023-12-28T01:21:59;2.1;;;1.5;;
26824;SDS011;14402;48.178;11.566;2023-12-28T01:22:29;1.8;;;1.5;;
26824;SDS011;14402;48.178;11.566;2023-12-28T01:22:59;1.8;;;1.5;;
26824;SDS011;14402;48.178;11.566;2023-12-28T01:23:29;1.8;;;1.5;;
26824;SDS011;14402;48.178;11.566;2023-12-28T01:23:59;2.4;;;1.6;;
26824;SDS011;14402;48.178;11.566;2023-12-28T01:24:29;3.0;;;1.7;;
26824;SDS011;14402;48.178;11.566;2023-12-28T01:24:59;3.0;;;1.7;;
26824;SDS011;14402;48.178;11.566;2023-12-28T01:25:29;3.0;;;1.7;;
26824;SDS011;14402;48.178;11.566;2023-12-28T01:25:59;2.5;;;1.5;;
26824;SDS011;14402;48.178;11.566;2023-12-28T01:26:29;1.9;;;1.4;;
26824;SDS011;14402;48.178;11.566;2023-12-28T01:27:00;1.9;;;1.4;;
26824;SDS011;14402;48.178;11.566;2023-12-28T01:27:30;1.9;;;1.4;;
26824;SDS011;14402;48.178;11.566;2023-12-28T01:28:00;2.0;;;1.5;;
26824;SDS011;14402;48.178;11.566;2023-12-28T01:28:30;2.1;;;1.7;;
26824;SDS011;14402;48.178;11.566;2023-12-28T01:29:00;2.1;;;1.7;;
26824;SDS011;14402;48.178;11.566;2023-12-28T01:29:30;2.1;;;1.7;;
26824;SDS011;14402;48.178;11.566;2023-12-28T01:30:00;2.3;;;1.7;;
26824;SDS011;14402;48.178;11.566;2023-12-28T01:30:30;2.6;;;1.7;;
26824;SDS011;14402;48.178;11.566;2023-12-28T01:31:00;2.6;;;1.7;;
26824;SDS011;14402;48.178;11.566;2023-12-28T01:31:30;2.6;;;1.7;;
26824;SDS011;14402;48.178;11.566;2023-12-28T01:32:02;2.4;;;1.7;;
26824;SDS011;14402;48.178;11.566;2023-12-28T01:32:30;2.3;;;1.7;;
26824;SDS011;14402;48.178;11.566;2023-12-28T01:33:01;2.3;;;1.7;;
26824;SDS011;14402;48.178;11.566;2023-12-28T01:33:31;2.3;;;1.7;;
26824;SDS011;14402;48.178;11.566;2023-12-28T01:34:01;2.3;;;1.5;;
26824;SDS011;14402;48.178;11.566;2023-12-28T01:34:31;2.3;;;1.4;;
26824;SDS011;14402;48.178;11.566;2023-12-28T01:35:01;2.3;;;1.4;;
26824;SDS011;14402;48.178;11.566;2023-12-28T01:35:31;2.3;;;1.4;;
26824;SDS011;14402;48.178;11.566;2023-12-28T01:36:01;2.0;;;1.5;;
26824;SDS011;14402;48.178;11.566;2023-12-28T01:36:31;1.8;;;1.6;;
26824;SDS011;14402;48.178;11.566;2023-12-28T01:37:01;1.8;;;1.6;;
26824;SDS011;14402;48.178;11.566;2023-12-28T01:37:31;1.8;;;1.6;;
26824;SDS011;14402;48.178;11.566;2023-12-28T01:38:01;2.1;;;1.7;;
26824;SDS011;14402;48.178;11.566;2023-12-28T01:38:31;2.4;;;1.8;;
26824;SDS011;14402;48.178;11.566;2023-12-28T01:39:02;2.4;;;1.8;;
26824;SDS011;14402;48.178;11.566;2023-12-28T01:39:32;2.4;;;1.8;;
26824;SDS011;14402;48.178;11.566;2023-12-28T01:40:02;2.0;;;1.6;;
26824;SDS011;14402;48.178;11.566;2023-12-28T01:40:32;1.6;;;1.4;;
26824;SDS011;14402;48.178;11.566;2023-12-28T01:41:02;1.6;;;1.4;;
26824;SDS011;14402;48.178;11.566;2023-12-28T01:41:32;1.6;;;1.4;;
26824;SDS011;14402;48.178;11.566;2023-12-28T01:42:02;2.0;;;1.5;;
26824;SDS011;14402;48.178;11.566;2023-12-28T01:42:32;2.5;;;1.5;;
26824;SDS011;14402;48.178;11.566;2023-12-28T01:43:02;2.5;;;1.5;;
26824;SDS011;14402;48.178;11.566;2023-12-28T01:43:32;2.5;;;1.5;;
26824;SDS011;14402;48.178;11.566;2023-12-28T01:44:02;2.4;;;1.5;;
26824;SDS011;14402;48.178;11.566;2023-12-28T01:44:32;2.3;;;1.4;;
26824;SDS011;14402;48.178;11.566;2023-12-28T01:45:02;2.3;;;1.4;;
26824;SDS011;14402;48.178;11.566;2023-12-28T01:45:32;2.3;;;1.4;;
26824;SDS011;14402;48.178;11.566;2023-12-28T01:46:02;2.7;;;1.5;;
26824;SDS011;14402;48.178;11.566;2023-12-28T01:46:32;3.1;;;1.6;;
26824;SDS011;14402;48.178;11.566;2023-12-28T01:47:03;3.1;;;1.6;;
26824;SDS011;14402;48.178;11.566;2023-12-28T01:47:33;3.1;;;1.6;;
26824;SDS011;14402;48.178;11.566;2023-12-28T01:48:03;2.5;;;1.6;;
26824;SDS011;14402;48.178;11.566;2023-12-28T01:48:33;2.0;;;1.6;;
26824;SDS011;14402;48.178;11.566;2023-12-28T01:49:03;2.0;;;1.6;;
26824;SDS011;14402;48.178;11.566;2023-12-28T01:49:33;2.0;;;1.6;;
26824;SDS011;14402;48.178;11.566;2023-12-28T01:50:03;2.1;;;1.7;;
26824;SDS011;14402;48.178;11.566;2023-12-28T01:50:33;2.2;;;1.7;;
26824;SDS011;14402;48.178;11.566;2023-12-28T01:51:03;2.2;;;1.7;;
26824;SDS011;14402;48.178;11.566;2023-12-28T01:51:33;2.2;;;1.7;;
26824;SDS011;14402;48.178;11.566;2023-12-28T01:52:03;2.0;;;1.7;;
26824;SDS011;14402;48.178;11.566;2023-12-28T01:52:33;1.8;;;1.6;;
26824;SDS011;14402;48.178;11.566;2023-12-28T01:53:03;1.8;;;1.6;;
26824;SDS011;14402;48.178;11.566;2023-12-28T01:53:33;1.8;;;1.6;;
26824;SDS011;14402;48.178;11.566;2023-12-28T01:54:03;2.0;;;1.7;;
26824;SDS011;14402;48.178;11.566;2023-12-28T01:54:33;2.2;;;1.7;;
26824;SDS011;14402;48.178;11.566;2023-12-28T01:55:04;2.2;;;1.7;;
26824;SDS011;14402;48.178;11.566;2023-12-28T01:55:33;2.2;;;1.7;;
26824;SDS011;14402;48.178;11.566;2023-12-28T01:56:04;2.2;;;1.8;;
26824;SDS011;14402;48.178;11.566;2023-12-28T01:56:33;2.3;;;1.9;;
26824;SDS011;14402;48.178;11.566;2023-12-28T01:57:04;2.3;;;1.9;;
26824;SDS011;14402;48.178;11.566;2023-12-28T01:57:34;2.3;;;1.9;;
26824;SDS011;14402;48.178;11.566;2023-12-28T01:58:04;2.2;;;1.8;;
26824;SDS011;14402;48.178;11.566;2023-12-28T01:58:34;2.0;;;1.7;;
26824;SDS011;14402;48.178;11.566;2023-12-28T01:59:04;2.0;;;1.7;;
26824;SDS011;14402;48.178;11.566;2023-12-28T01:59:34;2.0;;;1.7;;
26824;SDS011;14402;48.178;11.566;2023-12-28T02:00:04;2.0;;;1.6;;
26824;SDS011;14402;48.178;11.566;2023-12-28T02:00:34;1.9;;;1.5;;
26824;SDS011;14402;48.178;11.566;2023-12-28T02:01:04;1.9;;;1.5;;
26824;SDS011;14402;48.178;11.566;2023-12-28T02:01:34;1.9;;;1.5;;
26824;SDS011;14402;48.178;11.566;2023-12-28T02:02:04;2.0;;;1.5;;
26824;SDS011;14402;48.178;11.566;2023-12-28T02:02:34;2.1;;;1.6;;
26824;SDS011;14402;48.178;11.566;2023-12-28T02:03:05;2.1;;;1.6;;
26824;SDS011;14402;48.178;11.566;2023-12-28T02:03:34;2.1;;;1.6;;
26824;SDS011;14402;48.178;11.566;2023-12-28T02:04:04;1.8;;;1.5;;
26824;SDS011;14402;48.178;11.566;2023-12-28T02:04:35;1.6;;;1.4;;
26824;SDS011;14402;48.178;11.566;2023-12-28T02:05:05;1.6;;;1.4;;
26824;SDS011;14402;48.178;11.566;2023-12-28T02:05:35;1.6;;;1.4;;
26824;SDS011;14402;48.178;11.566;2023-12-28T02:06:05;1.7;;;1.5;;
26824;SDS011;14402;48.178;11.566;2023-12-28T02:06:35;1.7;;;1.5;;
26824;SDS011;14402;48.178;11.566;2023-12-28T02:07:05;1.7;;;1.5;;
26824;SDS011;14402;48.178;11.566;2023-12-28T02:07:35;1.7;;;1.5;;
26824;SDS011;14402;48.178;11.566;2023-12-28T02:08:05;1.7;;;1.5;;
26824;SDS011;14402;48.178;11.566;2023-12-28T02:08:35;1.7;;;1.5;;
26824;SDS011;14402;48.178;11.566;2023-12-28T02:09:05;1.7;;;1.5;;
26824;SDS011;14402;48.178;11.566;2023-12-28T02:09:35;1.7;;;1.5;;
26824;SDS011;14402;48.178;11.566;2023-12-28T02:10:06;2.0;;;1.6;;
26824;SDS011;14402;48.178;11.566;2023-12-28T02:10:35;2.2;;;1.8;;
26824;SDS011;14402;48.178;11.566;2023-12-28T02:11:05;2.2;;;1.8;;
26824;SDS011;14402;48.178;11.566;2023-12-28T02:11:35;2.2;;;1.8;;
26824;SDS011;14402;48.178;11.566;2023-12-28T02:12:06;2.3;;;1.7;;
26824;SDS011;14402;48.178;11.566;2023-12-28T02:12:36;2.4;;;1.6;;
26824;SDS011;14402;48.178;11.566;2023-12-28T02:13:06;2.4;;;1.6;;
26824;SDS011;14402;48.178;11.566;2023-12-28T02:13:36;2.4;;;1.6;;
26824;SDS011;14402;48.178;11.566;2023-12-28T02:14:06;2.3;;;1.7;;
26824;SDS011;14402;48.178;11.566;2023-12-28T02:14:36;2.3;;;1.8;;
26824;SDS011;14402;48.178;11.566;2023-12-28T02:15:06;2.3;;;1.8;;
26824;SDS011;14402;48.178;11.566;2023-12-28T02:15:36;2.3;;;1.8;;
26824;SDS011;14402;48.178;11.566;2023-12-28T02:16:07;2.1;;;1.6;;
26824;SDS011;14402;48.178;11.566;2023-12-28T02:16:37;1.9;;;1.5;;
26824;SDS011;14402;48.178;11.566;2023-12-28T02:17:39;1.9;;;1.5;;
26824;SDS011;14402;48.178;11.566;2023-12-28T02:18:09;2.0;;;1.5;;
26824;SDS011;14402;48.178;11.566;2023-12-28T02:18:38;2.0;;;1.6;;
26824;SDS011;14402;48.178;11.566;2023-12-28T02:19:08;2.0;;;1.6;;
26824;SDS011;14402;48.178;11.566;2023-12-28T02:19:39;2.0;;;1.6;;
26824;SDS011;14402;48.178;11.566;2023-12-28T02:20:07;2.0;;;1.5;;
26824;SDS011;14402;48.178;11.566;2023-12-28T02:20:37;2.1;;;1.3;;
26824;SDS011;14402;48.178;11.566;2023-12-28T02:21:07;2.1;;;1.3;;
26824;SDS011;14402;48.178;11.566;2023-12-28T02:21:37;2.1;;;1.3;;
26824;SDS011;14402;48.178;11.566;2023-12-28T02:22:07;2.1;;;1.3;;
26824;SDS011;14402;48.178;11.566;2023-12-28T02:22:37;2.1;;;1.3;;
26824;SDS011;14402;48.178;11.566;2023-12-28T02:23:07;2.1;;;1.3;;
26824;SDS011;14402;48.178;11.566;2023-12-28T02:23:37;2.1;;;1.3;;
26824;SDS011;14402;48.178;11.566;2023-12-28T02:24:07;1.9;;;1.3;;
26824;SDS011;14402;48.178;11.566;2023-12-28T02:24:56;1.8;;;1.4;;
26824;SDS011;14402;48.178;11.566;2023-12-28T02:25:08;1.8;;;1.4;;
26824;SDS011;14402;48.178;11.566;2023-12-28T02:25:38;1.8;;;1.4;;
26824;SDS011;14402;48.178;11.566;2023-12-28T02:26:08;1.8;;;1.5;;
26824;SDS011;14402;48.178;11.566;2023-12-28T02:26:38;1.9;;;1.5;;
26824;SDS011;14402;48.178;11.566;2023-12-28T02:27:08;1.9;;;1.5;;
26824;SDS011;14402;48.178;11.566;2023-12-28T02:27:39;1.9;;;1.5;;
26824;SDS011;14402;48.178;11.566;2023-12-28T02:28:08;2.0;;;1.5;;
26824;SDS011;14402;48.178;11.566;2023-12-28T02:28:38;2.1;;;1.5;;
26824;SDS011;14402;48.178;11.566;2023-12-28T02:29:08;2.1;;;1.5;;
26824;SDS011;14402;48.178;11.566;2023-12-28T02:29:38;2.1;;;1.5;;
26824;SDS011;14402;48.178;11.566;2023-12-28T02:30:09;2.4;;;1.5;;
26824;SDS011;14402;48.178;11.566;2023-12-28T02:30:39;2.7;;;1.6;;
26824;SDS011;14402;48.178;11.566;2023-12-28T02:31:09;2.7;;;1.6;;
26824;SDS011;14402;48.178;11.566;2023-12-28T02:31:39;2.7;;;1.6;;
26824;SDS011;14402;48.178;11.566;2023-12-28T02:32:09;2.2;;;1.6;;
26824;SDS011;14402;48.178;11.566;2023-12-28T02:32:44;1.8;;;1.6;;
26824;SDS011;14402;48.178;11.566;2023-12-28T02:33:11;1.8;;;1.6;;
26824;SDS011;14402;48.178;11.566;2023-12-28T02:33:42;1.8;;;1.6;;
26824;SDS011;14402;48.178;11.566;2023-12-28T02:34:11;1.9;;;1.5;;
26824;SDS011;14402;48.178;11.566;2023-12-28T02:34:41;2.1;;;1.5;;
26824;SDS011;14402;48.178;11.566;2023-12-28T02:35:10;2.1;;;1.5;;
26824;SDS011;14402;48.178;11.566;2023-12-28T02:35:40;2.1;;;1.5;;
26824;SDS011;14402;48.178;11.566;2023-12-28T02:36:10;2.0;;;1.5;;
26824;SDS011;14402;48.178;11.566;2023-12-28T02:36:39;2.0;;;1.4;;
26824;SDS011;14402;48.178;11.566;2023-12-28T02:37:09;2.0;;;1.4;;
26824;SDS011;14402;48.178;11.566;2023-12-28T02:37:39;2.0;;;1.4;;
26824;SDS011;14402;48.178;11.566;2023-12-28T02:38:10;1.7;;;1.3;;
26824;SDS011;14402;48.178;11.566;2023-12-28T02:38:39;1.4;;;1.3;;
26824;SDS011;14402;48.178;11.566;2023-12-28T02:39:10;1.4;;;1.3;;
26824;SDS011;14402;48.178;11.566;2023-12-28T02:39:39;1.4;;;1.3;;
26824;SDS011;14402;48.178;11.566;2023-12-28T02:40:10;2.0;;;1.5;;
26824;SDS011;14402;48.178;11.566;2023-12-28T02:40:40;2.6;;;1.6;;
26824;SDS011;14402;48.178;11.566;2023-12-28T02:41:10;2.6;;;1.6;;
26824;SDS011;14402;48.178;11.566;2023-12-28T02:41:40;2.6;;;1.6;;
26824;SDS011;14402;48.178;11.566;2023-12-28T02:42:10;2.2;;;1.5;;
26824;SDS011;14402;48.178;11.566;2023-12-28T02:42:40;1.8;;;1.3;;
26824;SDS011;14402;48.178;11.566;2023-12-28T02:43:10;1.8;;;1.3;;
26824;SDS011;14402;48.178;11.566;2023-12-28T02:43:40;1.8;;;1.3;;
26824;SDS011;14402;48.178;11.566;2023-12-28T02:44:10;1.8;;;1.4;;
26824;SDS011;14402;48.178;11.566;2023-12-28T02:44:40;1.9;;;1.5;;
26824;SDS011;14402;48.178;11.566;2023-12-28T02:45:10;1.9;;;1.5;;
26824;SDS011;14402;48.178;11.566;2023-12-28T02:45:40;1.9;;;1.5;;
26824;SDS011;14402;48.178;11.566;2023-12-28T02:46:10;2.2;;;1.6;;
26824;SDS011;14402;48.178;11.566;2023-12-28T02:46:40;2.4;;;1.8;;
26824;SDS011;14402;48.178;11.566;2023-12-28T02:47:10;2.4;;;1.8;;
26824;SDS011;14402;48.178;11.566;2023-12-28T02:47:40;2.4;;;1.8;;
26824;SDS011;14402;48.178;11.566;2023-12-28T02:48:10;2.6;;;1.6;;
26824;SDS011;14402;48.178;11.566;2023-12-28T02:48:41;2.8;;;1.4;;
26824;SDS011;14402;48.178;11.566;2023-12-28T02:49:10;2.8;;;1.4;;
26824;SDS011;14402;48.178;11.566;2023-12-28T02:49:40;2.8;;;1.4;;
26824;SDS011;14402;48.178;11.566;2023-12-28T02:50:11;2.3;;;1.5;;
26824;SDS011;14402;48.178;11.566;2023-12-28T02:50:41;1.8;;;1.5;;
26824;SDS011;14402;48.178;11.566;2023-12-28T02:51:11;1.8;;;1.5;;
26824;SDS011;14402;48.178;11.566;2023-12-28T02:51:41;1.8;;;1.5;;
26824;SDS011;14402;48.178;11.566;2023-12-28T02:52:11;2.0;;;1.5;;
26824;SDS011;14402;48.178;11.566;2023-12-28T02:52:41;2.3;;;1.6;;
26824;SDS011;14402;48.178;11.566;2023-12-28T02:53:11;2.3;;;1.6;;
26824;SDS011;14402;48.178;11.566;2023-12-28T02:53:41;2.3;;;1.6;;
26824;SDS011;14402;48.178;11.566;2023-12-28T02:54:11;2.8;;;1.6;;
26824;SDS011;14402;48.178;11.566;2023-12-28T02:54:41;3.2;;;1.6;;
26824;SDS011;14402;48.178;11.566;2023-12-28T02:55:11;3.2;;;1.6;;
26824;SDS011;14402;48.178;11.566;2023-12-28T02:55:41;3.2;;;1.6;;
26824;SDS011;14402;48.178;11.566;2023-12-28T02:56:11;2.7;;;1.5;;
26824;SDS011;14402;48.178;11.566;2023-12-28T02:56:41;2.2;;;1.4;;
26824;SDS011;14402;48.178;11.566;2023-12-28T02:57:11;2.2;;;1.4;;
26824;SDS011;14402;48.178;11.566;2023-12-28T02:57:42;2.2;;;1.4;;
26824;SDS011;14402;48.178;11.566;2023-12-28T02:58:11;1.9;;;1.4;;
26824;SDS011;14402;48.178;11.566;2023-12-28T02:58:42;1.5;;;1.4;;
26824;SDS011;14402;48.178;11.566;2023-12-28T02:59:12;1.5;;;1.4;;
26824;SDS011;14402;48.178;11.566;2023-12-28T02:59:42;1.5;;;1.4;;
26824;SDS011;14402;48.178;11.566;2023-12-28T03:00:12;1.6;;;1.4;;
26824;SDS011;14402;48.178;11.566;2023-12-28T03:00:42;1.7;;;1.4;;
26824;SDS011;14402;48.178;11.566;2023-12-28T03:01:12;1.7;;;1.4;;
26824;SDS011;14402;48.178;11.566;2023-12-28T03:01:42;1.7;;;1.4;;
26824;SDS011;14402;48.178;11.566;2023-12-28T03:02:12;1.7;;;1.3;;
26824;SDS011;14402;48.178;11.566;2023-12-28T03:02:42;1.6;;;1.3;;
26824;SDS011;14402;48.178;11.566;2023-12-28T03:03:12;1.6;;;1.3;;
26824;SDS011;14402;48.178;11.566;2023-12-28T03:03:42;1.6;;;1.3;;
26824;SDS011;14402;48.178;11.566;2023-12-28T03:04:12;2.2;;;1.3;;